sensor_id;sensor_type;location;lat;lon;timestamp;pressure;altitude;pressure_sealevel;temperature
24740;BMP280;45234;48.148;17.128;2023-01-29T00:00:04;100888.34;;;2.71
24740;BMP280;45234;48.148;17.128;2023-01-29T00:02:38;100892.09;;;2.78
24740;BMP280;45234;48.148;17.128;2023-01-29T00:05:06;100886.47;;;2.50
24740;BMP280;45234;48.148;17.128;2023-01-29T00:07:53;100886.53;;;2.26
24740;BMP280;45234;48.148;17.128;2023-01-29T00:10:20;100898.75;;;2.34
24740;BMP280;45234;48.148;17.128;2023-01-29T00:12:47;100888.75;;;2.42
24740;BMP280;45234;48.148;17.128;2023-01-29T00:15:13;100893.41;;;2.37
24740;BMP280;45234;48.148;17.128;2023-01-29T00:17:40;100889.78;;;2.28
24740;BMP280;45234;48.148;17.128;2023-01-29T00:20:07;100889.44;;;2.44
24740;BMP280;45234;48.148;17.128;2023-01-29T00:22:34;100896.88;;;2.36
24740;BMP280;45234;48.148;17.128;2023-01-29T00:25:02;100894.09;;;2.39
24740;BMP280;45234;48.148;17.128;2023-01-29T00:27:29;100899.56;;;2.34
24740;BMP280;45234;48.148;17.128;2023-01-29T00:29:56;100900.16;;;2.38
24740;BMP280;45234;48.148;17.128;2023-01-29T00:32:35;100904.94;;;2.54
24740;BMP280;45234;48.148;17.128;2023-01-29T00:35:02;100900.66;;;2.54
24740;BMP280;45234;48.148;17.128;2023-01-29T00:37:30;100902.19;;;2.57
24740;BMP280;45234;48.148;17.128;2023-01-29T00:39:57;100905.19;;;2.51
24740;BMP280;45234;48.148;17.128;2023-01-29T00:42:25;100904.38;;;2.50
24740;BMP280;45234;48.148;17.128;2023-01-29T00:45:11;100910.25;;;2.40
24740;BMP280;45234;48.148;17.128;2023-01-29T00:47:38;100903.91;;;2.45
24740;BMP280;45234;48.148;17.128;2023-01-29T00:50:08;100911.47;;;2.47
24740;BMP280;45234;48.148;17.128;2023-01-29T00:52:36;100913.72;;;2.62
24740;BMP280;45234;48.148;17.128;2023-01-29T00:55:05;100905.97;;;2.40
24740;BMP280;45234;48.148;17.128;2023-01-29T00:57:33;100907.31;;;2.33
24740;BMP280;45234;48.148;17.128;2023-01-29T01:00:01;100908.63;;;2.27
24740;BMP280;45234;48.148;17.128;2023-01-29T01:02:30;100906.50;;;2.21
24740;BMP280;45234;48.148;17.128;2023-01-29T01:05:16;100908.97;;;2.34
24740;BMP280;45234;48.148;17.128;2023-01-29T01:07:52;100910.13;;;2.30
24740;BMP280;45234;48.148;17.128;2023-01-29T01:10:30;100907.81;;;2.38
24740;BMP280;45234;48.148;17.128;2023-01-29T01:13:02;100909.19;;;2.31
24740;BMP280;45234;48.148;17.128;2023-01-29T01:15:38;100902.44;;;2.19
24740;BMP280;45234;48.148;17.128;2023-01-29T01:18:05;100906.59;;;2.20
24740;BMP280;45234;48.148;17.128;2023-01-29T01:20:34;100911.25;;;2.15
24740;BMP280;45234;48.148;17.128;2023-01-29T01:23:01;100922.56;;;1.99
24740;BMP280;45234;48.148;17.128;2023-01-29T01:25:28;100923.81;;;1.94
24740;BMP280;45234;48.148;17.128;2023-01-29T01:27:57;100910.22;;;1.93
24740;BMP280;45234;48.148;17.128;2023-01-29T01:30:25;100920.44;;;1.93
24740;BMP280;45234;48.148;17.128;2023-01-29T01:32:54;100918.81;;;1.92
24740;BMP280;45234;48.148;17.128;2023-01-29T01:35:21;100926.84;;;1.99
24740;BMP280;45234;48.148;17.128;2023-01-29T01:37:47;100911.63;;;1.97
24740;BMP280;45234;48.148;17.128;2023-01-29T01:40:17;100923.06;;;2.04
24740;BMP280;45234;48.148;17.128;2023-01-29T01:42:57;100920.84;;;2.24
24740;BMP280;45234;48.148;17.128;2023-01-29T01:53:20;100931.38;;;2.19
24740;BMP280;45234;48.148;17.128;2023-01-29T01:55:51;100923.34;;;2.13
24740;BMP280;45234;48.148;17.128;2023-01-29T01:58:29;100921.19;;;2.06
24740;BMP280;45234;48.148;17.128;2023-01-29T02:00:57;100932.84;;;2.11
24740;BMP280;45234;48.148;17.128;2023-01-29T02:03:28;100931.22;;;2.10
24740;BMP280;45234;48.148;17.128;2023-01-29T02:06:15;100937.31;;;2.20
24740;BMP280;45234;48.148;17.128;2023-01-29T02:09:01;100945.72;;;2.09
24740;BMP280;45234;48.148;17.128;2023-01-29T02:11:50;100947.81;;;2.04
24740;BMP280;45234;48.148;17.128;2023-01-29T02:14:17;100948.13;;;1.99
24740;BMP280;45234;48.148;17.128;2023-01-29T02:16:44;100946.19;;;2.03
24740;BMP280;45234;48.148;17.128;2023-01-29T02:19:38;100948.41;;;2.08
24740;BMP280;45234;48.148;17.128;2023-01-29T02:22:39;100946.84;;;2.18
24740;BMP280;45234;48.148;17.128;2023-01-29T02:31:24;100948.81;;;2.01
24740;BMP280;45234;48.148;17.128;2023-01-29T02:34:19;100961.41;;;2.04
24740;BMP280;45234;48.148;17.128;2023-01-29T02:36:59;100947.19;;;2.00
24740;BMP280;45234;48.148;17.128;2023-01-29T02:42:08;100951.81;;;1.95
24740;BMP280;45234;48.148;17.128;2023-01-29T02:44:58;100951.72;;;1.73
24740;BMP280;45234;48.148;17.128;2023-01-29T02:47:43;100955.19;;;1.72
24740;BMP280;45234;48.148;17.128;2023-01-29T02:50:27;100957.59;;;1.86
24740;BMP280;45234;48.148;17.128;2023-01-29T02:53:16;100959.56;;;1.70
24740;BMP280;45234;48.148;17.128;2023-01-29T02:55:54;100967.75;;;1.75
24740;BMP280;45234;48.148;17.128;2023-01-29T03:01:20;100972.66;;;1.78
24740;BMP280;45234;48.148;17.128;2023-01-29T03:03:52;100962.69;;;1.62
24740;BMP280;45234;48.148;17.128;2023-01-29T03:06:34;100959.91;;;1.65
24740;BMP280;45234;48.148;17.128;2023-01-29T03:09:15;100966.53;;;1.68
24740;BMP280;45234;48.148;17.128;2023-01-29T03:11:49;100964.81;;;1.56
24740;BMP280;45234;48.148;17.128;2023-01-29T03:14:33;100970.25;;;1.51
24740;BMP280;45234;48.148;17.128;2023-01-29T03:17:23;100971.69;;;1.42
24740;BMP280;45234;48.148;17.128;2023-01-29T03:19:53;100964.78;;;1.32
24740;BMP280;45234;48.148;17.128;2023-01-29T03:22:21;100961.47;;;1.42
24740;BMP280;45234;48.148;17.128;2023-01-29T03:24:54;100963.09;;;1.43
24740;BMP280;45234;48.148;17.128;2023-01-29T03:27:48;100971.63;;;1.31
24740;BMP280;45234;48.148;17.128;2023-01-29T03:30:46;100966.47;;;1.44
24740;BMP280;45234;48.148;17.128;2023-01-29T03:33:58;100963.53;;;1.25
24740;BMP280;45234;48.148;17.128;2023-01-29T03:36:36;100980.16;;;1.43
24740;BMP280;45234;48.148;17.128;2023-01-29T03:39:06;100978.81;;;1.63
24740;BMP280;45234;48.148;17.128;2023-01-29T03:41:38;100981.88;;;1.55
24740;BMP280;45234;48.148;17.128;2023-01-29T03:46:56;100970.22;;;1.64
24740;BMP280;45234;48.148;17.128;2023-01-29T03:52:25;100978.72;;;1.88
24740;BMP280;45234;48.148;17.128;2023-01-29T03:55:13;100960.63;;;1.91
24740;BMP280;45234;48.148;17.128;2023-01-29T03:57:54;100962.22;;;2.05
24740;BMP280;45234;48.148;17.128;2023-01-29T04:00:30;100962.00;;;1.84
24740;BMP280;45234;48.148;17.128;2023-01-29T04:06:03;100955.44;;;1.43
24740;BMP280;45234;48.148;17.128;2023-01-29T04:08:52;100963.50;;;1.37
24740;BMP280;45234;48.148;17.128;2023-01-29T04:11:21;100957.59;;;1.50
24740;BMP280;45234;48.148;17.128;2023-01-29T04:13:49;100947.25;;;1.51
24740;BMP280;45234;48.148;17.128;2023-01-29T04:16:21;100948.56;;;1.57
24740;BMP280;45234;48.148;17.128;2023-01-29T04:19:11;100945.38;;;1.66
24740;BMP280;45234;48.148;17.128;2023-01-29T04:21:41;100940.78;;;1.71
24740;BMP280;45234;48.148;17.128;2023-01-29T04:24:08;100945.09;;;1.70
24740;BMP280;45234;48.148;17.128;2023-01-29T04:29:39;100945.47;;;1.77
24740;BMP280;45234;48.148;17.128;2023-01-29T04:35:00;100944.00;;;1.36
24740;BMP280;45234;48.148;17.128;2023-01-29T04:37:34;100944.72;;;1.38
24740;BMP280;45234;48.148;17.128;2023-01-29T04:40:22;100941.13;;;1.41
24740;BMP280;45234;48.148;17.128;2023-01-29T04:45:43;100951.19;;;1.31
24740;BMP280;45234;48.148;17.128;2023-01-29T04:48:32;100953.03;;;1.29
24740;BMP280;45234;48.148;17.128;2023-01-29T04:51:38;100959.13;;;1.39
24740;BMP280;45234;48.148;17.128;2023-01-29T04:57:16;100963.31;;;1.40
24740;BMP280;45234;48.148;17.128;2023-01-29T05:02:32;100964.31;;;1.63
24740;BMP280;45234;48.148;17.128;2023-01-29T05:05:00;100967.03;;;1.73
24740;BMP280;45234;48.148;17.128;2023-01-29T05:07:30;100967.25;;;1.83
24740;BMP280;45234;48.148;17.128;2023-01-29T05:09:57;100969.31;;;1.65
24740;BMP280;45234;48.148;17.128;2023-01-29T05:12:25;100966.78;;;1.52
24740;BMP280;45234;48.148;17.128;2023-01-29T05:14:56;100967.06;;;1.47
24740;BMP280;45234;48.148;17.128;2023-01-29T05:17:26;100962.72;;;1.24
24740;BMP280;45234;48.148;17.128;2023-01-29T05:19:55;100965.06;;;1.27
24740;BMP280;45234;48.148;17.128;2023-01-29T05:22:23;100970.28;;;1.00
24740;BMP280;45234;48.148;17.128;2023-01-29T05:24:50;100965.66;;;1.05
24740;BMP280;45234;48.148;17.128;2023-01-29T05:27:21;100971.69;;;0.79
24740;BMP280;45234;48.148;17.128;2023-01-29T05:30:07;100972.41;;;0.94
24740;BMP280;45234;48.148;17.128;2023-01-29T05:32:35;100966.78;;;0.88
24740;BMP280;45234;48.148;17.128;2023-01-29T05:35:01;100962.09;;;0.95
24740;BMP280;45234;48.148;17.128;2023-01-29T05:37:28;100966.50;;;1.06
24740;BMP280;45234;48.148;17.128;2023-01-29T05:39:55;100968.44;;;0.90
24740;BMP280;45234;48.148;17.128;2023-01-29T05:42:22;100970.56;;;0.96
24740;BMP280;45234;48.148;17.128;2023-01-29T05:44:49;100967.19;;;0.82
24740;BMP280;45234;48.148;17.128;2023-01-29T05:47:19;100972.66;;;0.64
24740;BMP280;45234;48.148;17.128;2023-01-29T05:49:46;100972.16;;;0.71
24740;BMP280;45234;48.148;17.128;2023-01-29T05:52:13;100972.25;;;0.70
24740;BMP280;45234;48.148;17.128;2023-01-29T05:54:40;100971.88;;;0.76
24740;BMP280;45234;48.148;17.128;2023-01-29T05:57:06;100972.81;;;0.87
24740;BMP280;45234;48.148;17.128;2023-01-29T05:59:33;100976.59;;;0.95
24740;BMP280;45234;48.148;17.128;2023-01-29T06:02:00;100967.38;;;0.79
24740;BMP280;45234;48.148;17.128;2023-01-29T06:04:27;100975.84;;;0.67
24740;BMP280;45234;48.148;17.128;2023-01-29T06:06:54;100967.97;;;0.70
24740;BMP280;45234;48.148;17.128;2023-01-29T06:09:20;100953.22;;;0.88
24740;BMP280;45234;48.148;17.128;2023-01-29T06:11:47;100957.19;;;0.79
24740;BMP280;45234;48.148;17.128;2023-01-29T06:14:14;100955.75;;;0.75
24740;BMP280;45234;48.148;17.128;2023-01-29T06:16:41;100950.66;;;0.75
24740;BMP280;45234;48.148;17.128;2023-01-29T06:19:07;100945.97;;;0.95
24740;BMP280;45234;48.148;17.128;2023-01-29T06:21:34;100958.59;;;0.71
24740;BMP280;45234;48.148;17.128;2023-01-29T06:24:01;100943.19;;;0.72
24740;BMP280;45234;48.148;17.128;2023-01-29T06:26:28;100946.94;;;0.54
24740;BMP280;45234;48.148;17.128;2023-01-29T06:28:56;100945.81;;;0.58
24740;BMP280;45234;48.148;17.128;2023-01-29T06:31:23;100958.13;;;0.51
24740;BMP280;45234;48.148;17.128;2023-01-29T06:34:04;100957.91;;;0.42
24740;BMP280;45234;48.148;17.128;2023-01-29T06:36:31;100948.28;;;0.33
24740;BMP280;45234;48.148;17.128;2023-01-29T06:38:57;100941.16;;;0.25
24740;BMP280;45234;48.148;17.128;2023-01-29T06:41:24;100961.00;;;0.20
24740;BMP280;45234;48.148;17.128;2023-01-29T06:43:51;100971.03;;;0.36
24740;BMP280;45234;48.148;17.128;2023-01-29T06:46:18;100973.59;;;0.36
24740;BMP280;45234;48.148;17.128;2023-01-29T06:48:45;100979.88;;;0.17
24740;BMP280;45234;48.148;17.128;2023-01-29T06:51:12;100977.00;;;-0.05
24740;BMP280;45234;48.148;17.128;2023-01-29T06:53:39;100975.44;;;0.07
24740;BMP280;45234;48.148;17.128;2023-01-29T06:56:07;100986.09;;;-0.01
24740;BMP280;45234;48.148;17.128;2023-01-29T06:58:36;100986.84;;;0.01
24740;BMP280;45234;48.148;17.128;2023-01-29T07:01:08;100980.28;;;-0.03
24740;BMP280;45234;48.148;17.128;2023-01-29T07:03:35;100986.78;;;0.15
24740;BMP280;45234;48.148;17.128;2023-01-29T07:06:03;100991.53;;;0.21
24740;BMP280;45234;48.148;17.128;2023-01-29T07:08:30;100988.47;;;0.29
24740;BMP280;45234;48.148;17.128;2023-01-29T07:11:00;100995.56;;;0.11
24740;BMP280;45234;48.148;17.128;2023-01-29T07:13:28;100990.00;;;0.05
24740;BMP280;45234;48.148;17.128;2023-01-29T07:16:01;100993.34;;;0.19
24740;BMP280;45234;48.148;17.128;2023-01-29T07:18:28;100990.06;;;0.17
24740;BMP280;45234;48.148;17.128;2023-01-29T07:20:55;100988.50;;;0.42
24740;BMP280;45234;48.148;17.128;2023-01-29T07:23:22;100992.38;;;0.35
24740;BMP280;45234;48.148;17.128;2023-01-29T07:25:49;100994.66;;;0.52
24740;BMP280;45234;48.148;17.128;2023-01-29T07:28:17;100984.84;;;0.46
24740;BMP280;45234;48.148;17.128;2023-01-29T07:30:44;100992.97;;;0.38
24740;BMP280;45234;48.148;17.128;2023-01-29T07:33:11;100998.94;;;0.51
24740;BMP280;45234;48.148;17.128;2023-01-29T07:35:40;100997.19;;;0.52
24740;BMP280;45234;48.148;17.128;2023-01-29T07:38:08;100988.63;;;0.53
24740;BMP280;45234;48.148;17.128;2023-01-29T07:40:35;100990.59;;;0.62
24740;BMP280;45234;48.148;17.128;2023-01-29T07:43:04;100992.91;;;0.79
24740;BMP280;45234;48.148;17.128;2023-01-29T07:45:36;100988.56;;;1.07
24740;BMP280;45234;48.148;17.128;2023-01-29T07:48:04;100977.34;;;1.22
24740;BMP280;45234;48.148;17.128;2023-01-29T07:50:32;100981.09;;;0.91
24740;BMP280;45234;48.148;17.128;2023-01-29T07:53:00;100969.56;;;1.11
24740;BMP280;45234;48.148;17.128;2023-01-29T07:55:27;100966.72;;;1.28
24740;BMP280;45234;48.148;17.128;2023-01-29T07:58:02;100974.94;;;1.44
24740;BMP280;45234;48.148;17.128;2023-01-29T08:00:30;100973.28;;;1.82
24740;BMP280;45234;48.148;17.128;2023-01-29T08:03:05;100976.75;;;2.04
24740;BMP280;45234;48.148;17.128;2023-01-29T08:05:32;100987.38;;;2.35
24740;BMP280;45234;48.148;17.128;2023-01-29T08:07:59;100991.16;;;2.53
24740;BMP280;45234;48.148;17.128;2023-01-29T08:10:36;100997.28;;;2.16
24740;BMP280;45234;48.148;17.128;2023-01-29T08:13:03;100993.34;;;2.47
24740;BMP280;45234;48.148;17.128;2023-01-29T08:15:31;100992.56;;;2.57
24740;BMP280;45234;48.148;17.128;2023-01-29T08:17:59;100991.66;;;2.58
24740;BMP280;45234;48.148;17.128;2023-01-29T08:20:26;101001.72;;;2.95
24740;BMP280;45234;48.148;17.128;2023-01-29T08:23:04;100993.53;;;2.67
24740;BMP280;45234;48.148;17.128;2023-01-29T08:25:32;100984.41;;;2.52
24740;BMP280;45234;48.148;17.128;2023-01-29T08:28:00;100989.31;;;2.55
24740;BMP280;45234;48.148;17.128;2023-01-29T08:30:29;101000.41;;;2.78
24740;BMP280;45234;48.148;17.128;2023-01-29T08:32:57;100991.88;;;2.66
24740;BMP280;45234;48.148;17.128;2023-01-29T08:35:24;100981.47;;;1.98
24740;BMP280;45234;48.148;17.128;2023-01-29T08:37:55;100985.28;;;1.92
24740;BMP280;45234;48.148;17.128;2023-01-29T08:40:24;100989.31;;;2.08
24740;BMP280;45234;48.148;17.128;2023-01-29T08:42:51;100993.88;;;2.39
24740;BMP280;45234;48.148;17.128;2023-01-29T08:45:17;100987.75;;;2.77
24740;BMP280;45234;48.148;17.128;2023-01-29T08:47:46;100994.88;;;3.29
24740;BMP280;45234;48.148;17.128;2023-01-29T08:50:14;100999.78;;;2.63
24740;BMP280;45234;48.148;17.128;2023-01-29T08:52:43;101000.13;;;2.11
24740;BMP280;45234;48.148;17.128;2023-01-29T08:55:10;101004.06;;;1.91
24740;BMP280;45234;48.148;17.128;2023-01-29T08:57:38;100999.25;;;1.63
24740;BMP280;45234;48.148;17.128;2023-01-29T09:00:06;101000.38;;;1.59
24740;BMP280;45234;48.148;17.128;2023-01-29T09:02:35;101000.28;;;1.73
24740;BMP280;45234;48.148;17.128;2023-01-29T09:05:02;100997.63;;;1.62
24740;BMP280;45234;48.148;17.128;2023-01-29T09:07:29;100994.56;;;1.57
24740;BMP280;45234;48.148;17.128;2023-01-29T09:09:56;101004.38;;;1.50
24740;BMP280;45234;48.148;17.128;2023-01-29T09:12:23;101017.25;;;1.10
24740;BMP280;45234;48.148;17.128;2023-01-29T09:14:50;101008.00;;;0.82
24740;BMP280;45234;48.148;17.128;2023-01-29T09:17:17;101001.69;;;0.75
24740;BMP280;45234;48.148;17.128;2023-01-29T09:19:44;101013.88;;;0.57
24740;BMP280;45234;48.148;17.128;2023-01-29T09:22:11;101016.47;;;0.83
24740;BMP280;45234;48.148;17.128;2023-01-29T09:24:37;101015.63;;;0.97
24740;BMP280;45234;48.148;17.128;2023-01-29T09:27:04;101004.53;;;0.83
24740;BMP280;45234;48.148;17.128;2023-01-29T09:29:31;101020.91;;;0.94
24740;BMP280;45234;48.148;17.128;2023-01-29T09:32:02;101024.44;;;0.78
24740;BMP280;45234;48.148;17.128;2023-01-29T09:34:29;101019.53;;;0.75
24740;BMP280;45234;48.148;17.128;2023-01-29T09:36:55;101020.63;;;0.71
24740;BMP280;45234;48.148;17.128;2023-01-29T09:39:22;101022.13;;;0.88
24740;BMP280;45234;48.148;17.128;2023-01-29T09:47:24;101017.00;;;0.75
24740;BMP280;45234;48.148;17.128;2023-01-29T09:50:15;101012.41;;;0.80
24740;BMP280;45234;48.148;17.128;2023-01-29T09:52:56;101012.13;;;0.58
24740;BMP280;45234;48.148;17.128;2023-01-29T09:55:29;101013.75;;;0.59
24740;BMP280;45234;48.148;17.128;2023-01-29T09:58:02;101028.09;;;0.74
24740;BMP280;45234;48.148;17.128;2023-01-29T10:00:44;101011.53;;;0.54
24740;BMP280;45234;48.148;17.128;2023-01-29T10:09:18;101009.28;;;1.02
24740;BMP280;45234;48.148;17.128;2023-01-29T10:15:00;101009.06;;;1.05
24740;BMP280;45234;48.148;17.128;2023-01-29T10:20:46;101004.28;;;1.01
24740;BMP280;45234;48.148;17.128;2023-01-29T10:23:35;101001.13;;;0.97
24740;BMP280;45234;48.148;17.128;2023-01-29T10:26:03;100992.34;;;1.14
24740;BMP280;45234;48.148;17.128;2023-01-29T10:28:44;100989.06;;;1.12
24740;BMP280;45234;48.148;17.128;2023-01-29T10:31:21;100984.59;;;1.28
24740;BMP280;45234;48.148;17.128;2023-01-29T10:33:54;100988.91;;;1.28
24740;BMP280;45234;48.148;17.128;2023-01-29T10:36:46;101002.97;;;1.33
24740;BMP280;45234;48.148;17.128;2023-01-29T10:39:21;100986.63;;;1.23
24740;BMP280;45234;48.148;17.128;2023-01-29T11:01:38;100965.59;;;1.69
24740;BMP280;45234;48.148;17.128;2023-01-29T11:04:11;100975.31;;;1.76
24740;BMP280;45234;48.148;17.128;2023-01-29T11:06:38;100977.03;;;2.13
24740;BMP280;45234;48.148;17.128;2023-01-29T11:09:22;100969.78;;;1.83
24740;BMP280;45234;48.148;17.128;2023-01-29T11:12:12;100962.59;;;1.38
24740;BMP280;45234;48.148;17.128;2023-01-29T11:17:17;100954.34;;;1.22
24740;BMP280;45234;48.148;17.128;2023-01-29T11:19:46;100954.94;;;1.38
24740;BMP280;45234;48.148;17.128;2023-01-29T11:22:18;100953.50;;;1.34
24740;BMP280;45234;48.148;17.128;2023-01-29T11:25:06;100941.69;;;1.08
24740;BMP280;45234;48.148;17.128;2023-01-29T11:27:41;100938.41;;;1.31
24740;BMP280;45234;48.148;17.128;2023-01-29T11:30:34;100937.38;;;1.34
24740;BMP280;45234;48.148;17.128;2023-01-29T11:33:09;100934.88;;;1.45
24740;BMP280;45234;48.148;17.128;2023-01-29T11:35:37;100933.03;;;1.47
24740;BMP280;45234;48.148;17.128;2023-01-29T11:38:25;100941.53;;;1.35
24740;BMP280;45234;48.148;17.128;2023-01-29T11:40:54;100912.16;;;1.66
24740;BMP280;45234;48.148;17.128;2023-01-29T11:43:31;100921.53;;;1.78
24740;BMP280;45234;48.148;17.128;2023-01-29T11:46:06;100919.50;;;1.83
24740;BMP280;45234;48.148;17.128;2023-01-29T11:48:49;100904.56;;;1.77
24740;BMP280;45234;48.148;17.128;2023-01-29T11:51:28;100902.28;;;1.85
24740;BMP280;45234;48.148;17.128;2023-01-29T11:54:02;100894.00;;;2.05
24740;BMP280;45234;48.148;17.128;2023-01-29T11:56:40;100882.19;;;2.16
24740;BMP280;45234;48.148;17.128;2023-01-29T12:01:53;100870.28;;;2.03
24740;BMP280;45234;48.148;17.128;2023-01-29T12:04:23;100869.63;;;2.13
24740;BMP280;45234;48.148;17.128;2023-01-29T12:06:52;100867.00;;;2.01
24740;BMP280;45234;48.148;17.128;2023-01-29T12:09:22;100870.25;;;1.92
24740;BMP280;45234;48.148;17.128;2023-01-29T12:11:50;100854.34;;;1.52
24740;BMP280;45234;48.148;17.128;2023-01-29T12:14:32;100854.47;;;1.51
24740;BMP280;45234;48.148;17.128;2023-01-29T12:17:21;100837.03;;;1.08
24740;BMP280;45234;48.148;17.128;2023-01-29T12:19:57;100833.41;;;1.23
24740;BMP280;45234;48.148;17.128;2023-01-29T12:23:02;100828.53;;;0.95
24740;BMP280;45234;48.148;17.128;2023-01-29T12:25:35;100820.41;;;0.90
24740;BMP280;45234;48.148;17.128;2023-01-29T12:31:05;100817.75;;;0.78
24740;BMP280;45234;48.148;17.128;2023-01-29T12:39:03;100806.94;;;0.75
24740;BMP280;45234;48.148;17.128;2023-01-29T12:44:36;100806.91;;;1.00
24740;BMP280;45234;48.148;17.128;2023-01-29T12:47:13;100807.72;;;1.01
24740;BMP280;45234;48.148;17.128;2023-01-29T12:49:43;100816.44;;;0.85
24740;BMP280;45234;48.148;17.128;2023-01-29T12:52:19;100796.41;;;0.79
24740;BMP280;45234;48.148;17.128;2023-01-29T13:00:29;100795.91;;;0.74
24740;BMP280;45234;48.148;17.128;2023-01-29T13:06:04;100790.00;;;0.86
24740;BMP280;45234;48.148;17.128;2023-01-29T13:08:47;100786.28;;;0.91
24740;BMP280;45234;48.148;17.128;2023-01-29T13:11:33;100772.13;;;0.86
24740;BMP280;45234;48.148;17.128;2023-01-29T13:14:17;100773.22;;;0.82
24740;BMP280;45234;48.148;17.128;2023-01-29T13:16:49;100775.25;;;1.03
24740;BMP280;45234;48.148;17.128;2023-01-29T13:21:55;100772.75;;;0.77
24740;BMP280;45234;48.148;17.128;2023-01-29T13:24:24;100758.75;;;0.70
24740;BMP280;45234;48.148;17.128;2023-01-29T13:26:53;100763.88;;;0.57
24740;BMP280;45234;48.148;17.128;2023-01-29T13:29:24;100781.13;;;0.41
24740;BMP280;45234;48.148;17.128;2023-01-29T13:31:54;100783.66;;;0.41
24740;BMP280;45234;48.148;17.128;2023-01-29T13:36:57;100777.44;;;0.58
24740;BMP280;45234;48.148;17.128;2023-01-29T13:39:31;100776.94;;;0.53
24740;BMP280;45234;48.148;17.128;2023-01-29T13:42:01;100777.03;;;0.39
24740;BMP280;45234;48.148;17.128;2023-01-29T13:44:34;100768.19;;;0.19
24740;BMP280;45234;48.148;17.128;2023-01-29T13:47:07;100762.88;;;0.35
24740;BMP280;45234;48.148;17.128;2023-01-29T13:49:45;100770.31;;;0.38
24740;BMP280;45234;48.148;17.128;2023-01-29T13:52:28;100764.38;;;0.50
24740;BMP280;45234;48.148;17.128;2023-01-29T13:55:06;100771.84;;;0.40
24740;BMP280;45234;48.148;17.128;2023-01-29T14:10:28;100768.56;;;0.38
24740;BMP280;45234;48.148;17.128;2023-01-29T14:18:29;100772.13;;;0.61
24740;BMP280;45234;48.148;17.128;2023-01-29T14:21:00;100774.28;;;0.67
24740;BMP280;45234;48.148;17.128;2023-01-29T14:26:28;100771.63;;;0.69
24740;BMP280;45234;48.148;17.128;2023-01-29T14:29:02;100769.56;;;0.74
24740;BMP280;45234;48.148;17.128;2023-01-29T14:34:03;100776.31;;;0.87
24740;BMP280;45234;48.148;17.128;2023-01-29T14:36:39;100772.63;;;0.92
24740;BMP280;45234;48.148;17.128;2023-01-29T14:39:19;100780.06;;;0.95
24740;BMP280;45234;48.148;17.128;2023-01-29T14:41:49;100773.66;;;0.89
24740;BMP280;45234;48.148;17.128;2023-01-29T14:44:45;100786.53;;;0.62
24740;BMP280;45234;48.148;17.128;2023-01-29T14:53:10;100768.28;;;0.17
24740;BMP280;45234;48.148;17.128;2023-01-29T14:55:55;100774.50;;;0.13
24740;BMP280;45234;48.148;17.128;2023-01-29T14:58:29;100774.09;;;0.19
24740;BMP280;45234;48.148;17.128;2023-01-29T15:00:59;100778.81;;;0.25
24740;BMP280;45234;48.148;17.128;2023-01-29T15:03:51;100778.38;;;0.19
24740;BMP280;45234;48.148;17.128;2023-01-29T15:12:24;100773.69;;;0.00
24740;BMP280;45234;48.148;17.128;2023-01-29T15:15:15;100789.22;;;-0.17
24740;BMP280;45234;48.148;17.128;2023-01-29T15:20:47;100785.75;;;-0.16
24740;BMP280;45234;48.148;17.128;2023-01-29T15:23:26;100778.19;;;-0.31
24740;BMP280;45234;48.148;17.128;2023-01-29T15:25:59;100785.41;;;-0.24
24740;BMP280;45234;48.148;17.128;2023-01-29T15:28:32;100788.72;;;-0.37
24740;BMP280;45234;48.148;17.128;2023-01-29T15:31:02;100787.91;;;-0.37
24740;BMP280;45234;48.148;17.128;2023-01-29T15:33:31;100790.44;;;-0.37
24740;BMP280;45234;48.148;17.128;2023-01-29T15:36:02;100789.84;;;-0.41
24740;BMP280;45234;48.148;17.128;2023-01-29T15:38:34;100773.81;;;-0.28
24740;BMP280;45234;48.148;17.128;2023-01-29T15:41:16;100780.13;;;-0.21
24740;BMP280;45234;48.148;17.128;2023-01-29T15:43:45;100789.84;;;-0.41
24740;BMP280;45234;48.148;17.128;2023-01-29T15:48:46;100782.06;;;-0.52
24740;BMP280;45234;48.148;17.128;2023-01-29T15:51:19;100782.97;;;-0.53
24740;BMP280;45234;48.148;17.128;2023-01-29T15:53:50;100776.75;;;-0.49
24740;BMP280;45234;48.148;17.128;2023-01-29T15:56:24;100784.53;;;-0.38
24740;BMP280;45234;48.148;17.128;2023-01-29T15:58:57;100787.25;;;-0.26
24740;BMP280;45234;48.148;17.128;2023-01-29T16:01:28;100784.91;;;-0.44
24740;BMP280;45234;48.148;17.128;2023-01-29T16:03:58;100780.94;;;-0.48
24740;BMP280;45234;48.148;17.128;2023-01-29T16:06:35;100771.75;;;-0.50
24740;BMP280;45234;48.148;17.128;2023-01-29T16:09:03;100769.63;;;-0.44
24740;BMP280;45234;48.148;17.128;2023-01-29T16:11:31;100769.97;;;-0.36
24740;BMP280;45234;48.148;17.128;2023-01-29T16:13:59;100785.97;;;-0.34
24740;BMP280;45234;48.148;17.128;2023-01-29T16:16:27;100794.00;;;-0.40
24740;BMP280;45234;48.148;17.128;2023-01-29T16:18:54;100777.81;;;-0.39
24740;BMP280;45234;48.148;17.128;2023-01-29T16:21:36;100795.41;;;-0.48
24740;BMP280;45234;48.148;17.128;2023-01-29T16:24:12;100793.66;;;-0.48
24740;BMP280;45234;48.148;17.128;2023-01-29T16:26:47;100783.44;;;-0.61
24740;BMP280;45234;48.148;17.128;2023-01-29T16:29:20;100778.28;;;-0.73
24740;BMP280;45234;48.148;17.128;2023-01-29T16:31:51;100788.47;;;-0.73
24740;BMP280;45234;48.148;17.128;2023-01-29T16:34:36;100791.44;;;-0.67
24740;BMP280;45234;48.148;17.128;2023-01-29T16:37:29;100794.69;;;-0.65
24740;BMP280;45234;48.148;17.128;2023-01-29T16:39:58;100797.41;;;-0.53
24740;BMP280;45234;48.148;17.128;2023-01-29T16:42:26;100790.91;;;-0.45
24740;BMP280;45234;48.148;17.128;2023-01-29T16:45:01;100783.72;;;-0.38
24740;BMP280;45234;48.148;17.128;2023-01-29T16:47:36;100796.53;;;-0.25
24740;BMP280;45234;48.148;17.128;2023-01-29T16:50:28;100788.38;;;-0.45
24740;BMP280;45234;48.148;17.128;2023-01-29T16:53:16;100791.47;;;-0.40
24740;BMP280;45234;48.148;17.128;2023-01-29T16:55:45;100791.25;;;-0.37
24740;BMP280;45234;48.148;17.128;2023-01-29T16:58:17;100794.94;;;-0.41